Time;durP1;ratioP1;P1;durP2;ratioP2;P2;SDS_P1;SDS_P2;PMS_P1;PMS_P2;Temp;Humidity;BMP_temperature;BMP_pressure;BME280_temperature;BME280_humidity;BME280_pressure;Samples;Min_cycle;Max_cycle;Signal;HPM_P1;HPM_P2
2021/12/11 00:01:23;;;;;;;32.88;20.98;;;-0.90;99.90;;;;;;5022575;28;20061;-61
2021/12/11 00:03:55;;;;;;;38.00;21.25;;;-0.90;99.90;;;;;;5022533;28;20080;-62
2021/12/11 00:06:26;;;;;;;32.58;20.60;;;-0.90;99.90;;;;;;5021571;28;20050;-62
2021/12/11 00:08:57;;;;;;;33.75;20.52;;;-0.90;99.90;;;;;;5002699;28;20071;-61
2021/12/11 00:11:28;;;;;;;34.55;22.08;;;-0.90;99.90;;;;;;5023332;28;20057;-61
2021/12/11 00:13:58;;;;;;;33.10;20.75;;;-0.90;99.90;;;;;;5023961;28;20045;-61
2021/12/11 00:16:27;;;;;;;34.58;21.38;;;-1.00;99.90;;;;;;5024119;28;20046;-61
2021/12/11 00:18:56;;;;;;;34.25;20.42;;;-1.00;99.90;;;;;;5022175;28;20046;-61
2021/12/11 00:21:25;;;;;;;35.47;21.15;;;-1.00;99.90;;;;;;5022193;28;20057;-60
2021/12/11 00:23:59;;;;;;;33.22;21.15;;;-1.00;99.90;;;;;;5023601;28;20073;-61
2021/12/11 00:26:33;;;;;;;33.13;21.17;;;-1.00;99.90;;;;;;5023816;28;20069;-61
2021/12/11 00:29:00;;;;;;;34.17;20.85;;;-1.00;99.90;;;;;;5022160;28;20469;-61
2021/12/11 00:31:30;;;;;;;36.50;21.33;;;-1.10;99.90;;;;;;5023377;28;20045;-60
2021/12/11 00:33:58;;;;;;;33.83;20.00;;;-1.00;99.90;;;;;;5021906;28;20069;-60
2021/12/11 00:36:32;;;;;;;33.97;21.30;;;-1.10;99.90;;;;;;5021537;28;20184;-61
2021/12/11 00:39:12;;;;;;;34.35;21.40;;;-1.10;99.90;;;;;;5023030;28;20092;-60
2021/12/11 00:41:38;;;;;;;33.47;20.73;;;-1.10;99.90;;;;;;5022907;28;20069;-61
2021/12/11 00:44:05;;;;;;;34.58;20.60;;;-1.10;99.90;;;;;;5022247;28;20074;-61
2021/12/11 00:46:32;;;;;;;34.63;20.50;;;-1.10;99.90;;;;;;5023178;28;20070;-61
2021/12/11 00:49:18;;;;;;;35.17;20.35;;;-1.10;99.90;;;;;;5012602;28;20073;-61
2021/12/11 00:51:54;;;;;;;34.17;19.67;;;-1.10;99.90;;;;;;5012589;28;20106;-60
2021/12/11 00:54:21;;;;;;;36.87;21.73;;;-1.10;99.90;;;;;;5023133;28;20080;-61
2021/12/11 00:56:47;;;;;;;33.65;20.15;;;-1.20;99.90;;;;;;5022915;28;20081;-60
2021/12/11 00:59:17;;;;;;;36.05;21.40;;;-1.10;99.90;;;;;;5023429;28;20057;-62
2021/12/11 01:01:53;;;;;;;35.25;20.75;;;-1.10;99.90;;;;;;5017134;28;20154;-61
2021/12/11 01:04:26;;;;;;;37.30;22.65;;;-1.10;99.90;;;;;;5021100;28;20077;-61
2021/12/11 01:06:58;;;;;;;35.92;22.08;;;-1.10;99.90;;;;;;5022728;28;20053;-61
2021/12/11 01:09:31;;;;;;;39.15;22.55;;;-1.10;99.90;;;;;;5022660;28;20053;-61
2021/12/11 01:12:10;;;;;;;37.58;20.63;;;-1.20;99.90;;;;;;5022767;28;20117;-61
2021/12/11 01:14:50;;;;;;;39.75;20.75;;;-1.20;99.90;;;;;;5022887;28;20067;-61
2021/12/11 01:17:22;;;;;;;32.97;20.50;;;-1.20;99.90;;;;;;5022811;28;20124;-61
2021/12/11 01:19:52;;;;;;;35.22;21.70;;;-1.20;99.90;;;;;;5022800;28;20041;-61
2021/12/11 01:22:33;;;;;;;36.67;21.83;;;-1.20;99.90;;;;;;5022602;28;20101;-61
2021/12/11 01:25:23;;;;;;;34.63;21.27;;;-1.20;99.90;;;;;;5020887;28;20060;-61
2021/12/11 01:27:57;;;;;;;40.25;21.42;;;-1.20;99.90;;;;;;5022342;28;20418;-61
2021/12/11 01:30:27;;;;;;;34.95;21.33;;;-1.20;99.90;;;;;;5021255;28;20105;-61
2021/12/11 01:32:53;;;;;;;34.75;20.67;;;-1.20;99.90;;;;;;5022006;28;20049;-61
2021/12/11 01:35:20;;;;;;;34.87;20.10;;;-1.20;99.90;;;;;;5021399;28;20059;-61
2021/12/11 01:37:50;;;;;;;42.80;24.02;;;-1.20;99.90;;;;;;5022516;28;20066;-61
2021/12/11 01:40:20;;;;;;;41.45;24.08;;;-1.20;99.90;;;;;;5021875;28;20393;-61
2021/12/11 01:42:47;;;;;;;41.45;22.75;;;-1.10;99.90;;;;;;5020835;28;20105;-60
2021/12/11 01:45:15;;;;;;;36.65;21.75;;;-1.10;99.90;;;;;;5022602;28;20069;-61
2021/12/11 01:47:44;;;;;;;40.85;23.20;;;-1.10;99.90;;;;;;5021019;28;20080;-61
2021/12/11 01:50:23;;;;;;;37.75;22.55;;;-1.20;99.90;;;;;;5015396;28;20048;-61
2021/12/11 01:53:00;;;;;;;39.85;23.00;;;-1.10;99.90;;;;;;5019749;28;20577;-60
2021/12/11 01:55:33;;;;;;;39.80;21.60;;;-1.20;99.90;;;;;;5022612;28;20053;-61
2021/12/11 01:58:00;;;;;;;41.45;21.85;;;-1.20;99.90;;;;;;5020851;28;20088;-61
2021/12/11 02:00:29;;;;;;;38.78;22.10;;;-1.20;99.90;;;;;;5020874;28;20061;-61
2021/12/11 02:02:58;;;;;;;35.92;22.17;;;-1.20;99.90;;;;;;5020624;28;20050;-61
2021/12/11 02:05:27;;;;;;;35.35;21.85;;;-1.20;99.90;;;;;;5020849;28;20054;-60
2021/12/11 02:07:56;;;;;;;37.42;21.92;;;-1.20;99.90;;;;;;5022161;28;20075;-61
2021/12/11 02:10:31;;;;;;;41.15;22.02;;;-1.20;99.90;;;;;;5020649;28;20446;-61
2021/12/11 02:12:58;;;;;;;40.30;20.70;;;-1.20;99.90;;;;;;5020008;28;20042;-61
2021/12/11 02:15:33;;;;;;;41.40;24.08;;;-1.20;99.90;;;;;;5022621;28;20397;-61
2021/12/11 02:18:11;;;;;;;40.47;22.52;;;-1.20;99.90;;;;;;5021970;28;20045;-61
2021/12/11 02:20:51;;;;;;;36.63;21.45;;;-1.20;99.90;;;;;;5020750;28;20065;-60
2021/12/11 02:23:17;;;;;;;35.50;21.23;;;-1.10;99.90;;;;;;5036434;28;20401;-60
2021/12/11 02:25:47;;;;;;;42.35;23.45;;;-1.10;99.90;;;;;;5037187;28;20117;-61
2021/12/11 02:28:30;;;;;;;36.75;20.38;;;-1.20;99.90;;;;;;5020458;28;20045;-61
2021/12/11 02:31:08;;;;;;;37.05;21.73;;;-1.10;99.90;;;;;;5003242;28;20078;-60
2021/12/11 02:33:56;;;;;;;38.08;21.55;;;-1.20;99.90;;;;;;5021585;28;20466;-61
2021/12/11 02:36:33;;;;;;;35.85;21.02;;;-1.10;99.90;;;;;;5022676;28;20049;-61
2021/12/11 02:39:11;;;;;;;38.97;21.08;;;-1.10;99.90;;;;;;5019225;28;20041;-60
2021/12/11 02:41:36;;;;;;;;;;;-1.10;99.90;;;;;;5003887;28;20054;-60
2021/12/11 02:44:08;;;;;;;34.80;21.02;;;-1.20;99.90;;;;;;5019759;28;19947;-60
2021/12/11 02:46:42;;;;;;;37.60;21.25;;;-1.10;99.90;;;;;;5022346;28;20045;-61
2021/12/11 02:49:16;;;;;;;37.80;20.42;;;-1.10;99.90;;;;;;5019958;28;20184;-61
2021/12/11 02:52:09;;;;;;;39.08;21.33;;;-1.10;99.90;;;;;;5037473;28;20065;-60
2021/12/11 02:54:44;;;;;;;40.90;21.73;;;-1.10;99.90;;;;;;5018813;28;20042;-60
2021/12/11 02:57:32;;;;;;;36.67;21.38;;;-1.10;99.90;;;;;;5021718;28;20080;-60
2021/12/11 03:00:12;;;;;;;40.65;22.75;;;-1.00;99.90;;;;;;5019079;28;20107;-61
2021/12/11 03:02:44;;;;;;;41.78;21.98;;;-1.00;99.90;;;;;;5019808;28;20116;-61
2021/12/11 03:05:13;;;;;;;37.47;21.05;;;-1.00;99.90;;;;;;5024138;28;20061;-61
2021/12/11 03:07:44;;;;;;;39.78;21.85;;;-1.00;99.90;;;;;;5024897;28;20038;-61
2021/12/11 03:10:15;;;;;;;35.38;21.15;;;-1.00;99.90;;;;;;5025200;28;20064;-60
2021/12/11 03:12:44;;;;;;;38.60;22.45;;;-1.00;99.90;;;;;;5025116;28;20082;-60
2021/12/11 03:15:12;;;;;;;44.55;23.75;;;-1.00;99.90;;;;;;5024663;28;20049;-61
2021/12/11 03:17:38;;;;;;;43.42;23.65;;;-1.00;99.90;;;;;;5005071;28;20129;-61
2021/12/11 03:20:06;;;;;;;;;;;-1.00;99.90;;;;;;5024042;28;20155;-61
2021/12/11 03:22:34;;;;;;;42.97;22.40;;;-1.00;99.90;;;;;;5025227;28;19965;-61
2021/12/11 03:25:03;;;;;;;44.83;21.70;;;-1.00;99.90;;;;;;5023028;28;20065;-60
2021/12/11 03:27:29;;;;;;;42.10;22.90;;;-1.00;99.90;;;;;;5005730;28;20540;-61
2021/12/11 03:29:55;;;;;;;40.53;23.43;;;-1.00;99.90;;;;;;5023137;28;20073;-60
2021/12/11 03:32:21;;;;;;;43.97;22.67;;;-1.00;99.90;;;;;;5023053;28;20050;-60
2021/12/11 03:34:49;;;;;;;45.25;21.88;;;-1.00;99.90;;;;;;5023169;28;20068;-60
2021/12/11 03:37:17;;;;;;;40.72;21.17;;;-1.00;99.90;;;;;;5022924;28;20049;-61
2021/12/11 03:39:46;;;;;;;41.53;21.98;;;-1.00;99.90;;;;;;5024408;28;20034;-61
2021/12/11 03:42:17;;;;;;;45.55;22.65;;;-1.00;99.90;;;;;;5024768;28;20038;-61
2021/12/11 03:44:43;;;;;;;43.15;23.02;;;-1.00;99.90;;;;;;5023049;28;20060;-61
2021/12/11 03:47:20;;;;;;;40.38;21.92;;;-1.00;99.90;;;;;;5024573;28;20056;-60
2021/12/11 03:49:46;;;;;;;44.13;22.05;;;-0.90;99.90;;;;;;5022451;28;20053;-61
2021/12/11 03:52:14;;;;;;;45.15;22.25;;;-0.90;99.90;;;;;;5023196;28;20052;-60
2021/12/11 03:54:43;;;;;;;42.03;21.75;;;-0.90;99.90;;;;;;5011374;28;20116;-60
2021/12/11 03:57:11;;;;;;;44.63;23.95;;;-0.90;99.90;;;;;;5022389;28;20046;-60
2021/12/11 03:59:37;;;;;;;40.42;22.63;;;-0.90;99.90;;;;;;5022606;28;20050;-61
2021/12/11 04:02:10;;;;;;;43.80;23.30;;;-0.90;99.90;;;;;;5024433;28;20057;-61
2021/12/11 04:04:45;;;;;;;41.30;23.05;;;-0.90;99.90;;;;;;5022615;28;20053;-60
2021/12/11 04:07:16;;;;;;;45.97;24.80;;;-0.90;99.90;;;;;;5022194;28;20064;-61
2021/12/11 04:09:44;;;;;;;48.28;23.35;;;-0.90;99.90;;;;;;5022074;28;20136;-61
2021/12/11 04:12:11;;;;;;;51.15;24.48;;;-0.90;99.90;;;;;;5022410;28;20080;-61
2021/12/11 04:14:41;;;;;;;42.35;24.33;;;-0.90;99.90;;;;;;5024150;28;20046;-60
2021/12/11 04:17:10;;;;;;;43.42;23.45;;;-0.90;99.90;;;;;;5023316;28;20099;-60
2021/12/11 04:19:36;;;;;;;45.65;23.70;;;-0.90;99.90;;;;;;5023435;28;20089;-61
2021/12/11 04:22:04;;;;;;;41.65;22.98;;;-0.90;99.90;;;;;;5023805;28;20056;-61
2021/12/11 04:24:32;;;;;;;39.65;22.40;;;-0.90;99.90;;;;;;5008094;28;20043;-60
2021/12/11 04:27:01;;;;;;;42.63;24.08;;;-0.90;99.90;;;;;;5017143;28;20088;-61
2021/12/11 04:29:29;;;;;;;43.22;23.33;;;-0.90;99.90;;;;;;5023342;28;20105;-61
2021/12/11 04:31:55;;;;;;;42.85;22.60;;;-0.90;99.90;;;;;;5023680;28;20111;-61
2021/12/11 04:34:22;;;;;;;44.22;22.63;;;-0.90;99.90;;;;;;5022289;28;20089;-61
2021/12/11 04:36:58;;;;;;;42.50;22.42;;;-0.90;99.90;;;;;;5023537;28;20041;-61
2021/12/11 04:39:25;;;;;;;40.00;22.05;;;-1.00;99.90;;;;;;5021538;28;20049;-61
2021/12/11 04:42:02;;;;;;;42.63;23.10;;;-1.00;99.90;;;;;;5023513;28;20053;-61
2021/12/11 04:44:39;;;;;;;41.87;21.30;;;-1.00;99.90;;;;;;5022305;28;20045;-61
2021/12/11 04:47:27;;;;;;;39.45;23.02;;;-1.00;99.90;;;;;;5021892;28;20053;-61
2021/12/11 04:50:05;;;;;;;40.55;22.45;;;-1.00;99.90;;;;;;5023202;28;20060;-61
2021/12/11 04:52:34;;;;;;;38.25;21.70;;;-1.00;99.90;;;;;;5021749;28;20057;-61
2021/12/11 04:55:28;;;;;;;40.90;21.27;;;-1.10;99.90;;;;;;5023327;28;20073;-61
2021/12/11 05:01:16;;;;;;;39.65;22.45;;;-1.10;99.90;;;;;;5021315;28;20053;-60
2021/12/11 05:09:13;;;;;;;41.58;22.20;;;-1.10;99.90;;;;;;5021446;28;20077;-60
2021/12/11 05:11:43;;;;;;;33.55;19.73;;;-1.10;99.90;;;;;;5020059;28;20046;-60
2021/12/11 05:14:13;;;;;;;37.42;20.98;;;-1.10;99.90;;;;;;5021308;28;20045;-61
2021/12/11 05:16:40;;;;;;;35.50;20.60;;;-1.10;99.90;;;;;;5009170;28;20034;-60
2021/12/11 05:19:06;;;;;;;31.30;20.42;;;-1.00;99.90;;;;;;5005456;28;20058;-61
2021/12/11 05:21:33;;;;;;;38.63;21.83;;;-1.10;99.90;;;;;;5002162;28;20110;-60
2021/12/11 05:24:01;;;;;;;37.20;20.73;;;-1.00;99.90;;;;;;5022090;28;20354;-60
2021/12/11 05:26:27;;;;;;;37.55;22.65;;;-1.00;99.90;;;;;;5021273;28;20054;-61
2021/12/11 05:28:53;;;;;;;38.97;21.77;;;-1.00;99.90;;;;;;5021237;28;20072;-60
2021/12/11 05:31:19;;;;;;;39.85;22.10;;;-1.00;99.90;;;;;;5022626;28;20036;-60
2021/12/11 05:33:46;;;;;;;39.03;22.00;;;-1.00;99.90;;;;;;5020607;28;20069;-60
2021/12/11 05:36:17;;;;;;;39.28;22.52;;;-1.00;99.90;;;;;;5023152;28;20304;-60
2021/12/11 05:38:47;;;;;;;36.92;22.23;;;-1.00;99.90;;;;;;5022507;28;20847;-60
2021/12/11 05:41:16;;;;;;;44.22;22.27;;;-1.00;99.90;;;;;;5022960;28;20042;-60
2021/12/11 05:43:42;;;;;;;39.13;23.30;;;-1.00;99.90;;;;;;5020578;28;20065;-61
2021/12/11 05:46:10;;;;;;;35.05;21.10;;;-1.00;99.90;;;;;;5021156;28;20497;-60
2021/12/11 05:48:36;;;;;;;39.78;21.90;;;-0.90;99.90;;;;;;5017170;28;20112;-60
2021/12/11 05:51:07;;;;;;;40.95;23.05;;;-0.90;99.90;;;;;;5021159;28;20060;-61
2021/12/11 05:53:34;;;;;;;40.70;22.05;;;-0.90;99.90;;;;;;5020690;28;20042;-61
2021/12/11 05:56:06;;;;;;;43.00;22.90;;;-0.90;99.90;;;;;;5022001;28;20106;-60
2021/12/11 06:01:28;;;;;;;40.15;22.48;;;-0.90;99.90;;;;;;5014283;28;20053;-61
2021/12/11 06:03:53;;;;;;;;;;;-0.90;99.90;;;;;;5020847;28;20052;-61
2021/12/11 06:06:19;;;;;;;38.90;21.55;;;-0.90;99.90;;;;;;5022440;28;19922;-61
2021/12/11 06:08:45;;;;;;;37.77;21.60;;;-0.90;99.90;;;;;;5022068;28;20100;-61
2021/12/11 06:11:13;;;;;;;37.63;22.60;;;-0.90;99.90;;;;;;5022426;28;20323;-61
2021/12/11 06:13:39;;;;;;;41.90;22.50;;;-0.90;99.90;;;;;;5022361;28;20079;-61
2021/12/11 06:16:05;;;;;;;42.78;21.98;;;-0.90;99.90;;;;;;5020852;28;20088;-61
2021/12/11 06:18:31;;;;;;;44.80;21.23;;;-0.90;99.90;;;;;;5020566;28;20068;-61
2021/12/11 06:20:57;;;;;;;40.03;21.83;;;-0.90;99.90;;;;;;5022240;28;20057;-61
2021/12/11 06:23:23;;;;;;;39.25;20.58;;;-0.90;99.90;;;;;;5022099;28;20128;-61
2021/12/11 06:25:51;;;;;;;38.08;21.85;;;-0.90;99.90;;;;;;5021953;28;20072;-61
2021/12/11 06:28:18;;;;;;;36.40;20.25;;;-0.90;99.90;;;;;;5022035;28;20069;-61
2021/12/11 06:30:44;;;;;;;37.58;22.00;;;-0.90;99.90;;;;;;5022266;28;20127;-61
2021/12/11 06:33:10;;;;;;;38.63;22.17;;;-0.90;99.90;;;;;;5021882;28;20052;-60
2021/12/11 06:35:47;;;;;;;40.90;21.48;;;-0.90;99.90;;;;;;5020504;28;20050;-61
2021/12/11 06:38:16;;;;;;;36.35;21.88;;;-0.90;99.90;;;;;;5020207;28;20088;-61
2021/12/11 06:40:42;;;;;;;40.40;23.27;;;-0.90;99.90;;;;;;5024555;28;20081;-60
2021/12/11 06:43:09;;;;;;;39.00;22.60;;;-0.90;99.90;;;;;;5024304;28;20052;-59
2021/12/11 06:45:37;;;;;;;45.60;25.48;;;-0.90;99.90;;;;;;5024121;28;20042;-59
2021/12/11 06:48:03;;;;;;;44.72;23.80;;;-0.90;99.90;;;;;;5024942;28;20041;-58
2021/12/11 06:50:29;;;;;;;45.60;24.88;;;-0.90;99.90;;;;;;5025753;28;20104;-58
2021/12/11 06:52:57;;;;;;;46.85;26.50;;;-0.90;99.90;;;;;;5025058;28;20110;-59
2021/12/11 06:55:24;;;;;;;51.15;26.23;;;-0.90;99.90;;;;;;5021530;28;20042;-58
2021/12/11 06:57:50;;;;;;;43.60;24.98;;;-0.80;99.90;;;;;;4990725;28;20077;-59
2021/12/11 07:00:18;;;;;;;51.17;25.40;;;-0.80;99.90;;;;;;5025443;28;20089;-58
2021/12/11 07:02:43;;;;;;;45.55;25.70;;;-0.80;99.90;;;;;;5024954;28;20580;-59
2021/12/11 07:05:09;;;;;;;45.00;25.30;;;-0.80;99.90;;;;;;5023739;28;20052;-59
2021/12/11 07:07:37;;;;;;;49.17;25.08;;;-0.80;99.90;;;;;;5040245;28;20049;-59
2021/12/11 07:10:08;;;;;;;45.85;24.95;;;-0.80;99.90;;;;;;5023123;28;20188;-59
2021/12/11 07:12:34;;;;;;;51.53;26.30;;;-0.80;99.90;;;;;;5025186;28;20062;-59
2021/12/11 07:15:00;;;;;;;51.30;26.30;;;-0.80;99.90;;;;;;5025230;28;20045;-60
2021/12/11 07:17:27;;;;;;;47.55;26.77;;;-0.80;99.90;;;;;;5023097;28;20046;-59
2021/12/11 07:19:53;;;;;;;48.30;27.15;;;-0.80;99.90;;;;;;5021219;28;20121;-59
2021/12/11 07:22:19;;;;;;;53.83;28.42;;;-0.70;99.90;;;;;;5024272;28;20052;-59
2021/12/11 07:25:13;;;;;;;48.40;26.70;;;-0.70;99.90;;;;;;5007222;28;20101;-59
2021/12/11 07:27:38;;;;;;;54.67;26.98;;;-0.70;99.90;;;;;;5019044;28;20458;-60
2021/12/11 07:30:05;;;;;;;50.40;26.95;;;-0.70;99.90;;;;;;5024146;28;20045;-59
2021/12/11 07:32:30;;;;;;;49.50;26.23;;;-0.70;99.90;;;;;;5022809;28;20080;-59
2021/12/11 07:34:56;;;;;;;61.53;27.87;;;-0.70;99.90;;;;;;5024756;28;20145;-61
2021/12/11 07:37:22;;;;;;;51.70;26.13;;;-0.70;99.90;;;;;;5024457;28;20054;-60
2021/12/11 07:39:48;;;;;;;53.20;27.23;;;-0.70;99.90;;;;;;5023238;28;20049;-59
2021/12/11 07:42:14;;;;;;;54.77;27.67;;;-0.70;99.90;;;;;;5024286;28;20093;-59
2021/12/11 07:44:39;;;;;;;52.87;26.03;;;-0.70;99.90;;;;;;5023246;28;20303;-59
2021/12/11 07:47:06;;;;;;;47.97;25.27;;;-0.70;99.90;;;;;;5024505;28;20129;-61
2021/12/11 07:49:32;;;;;;;44.35;26.88;;;-0.70;99.90;;;;;;5007898;28;20400;-63
2021/12/11 07:51:57;;;;;;;47.27;26.83;;;-0.70;99.90;;;;;;5013453;28;20417;-59
2021/12/11 07:54:23;;;;;;;46.93;26.20;;;-0.70;99.90;;;;;;5023925;28;20319;-60
2021/12/11 07:56:49;;;;;;;44.47;25.90;;;-0.70;99.90;;;;;;5010258;28;20304;-59
2021/12/11 07:59:16;;;;;;;51.90;26.65;;;-0.70;99.90;;;;;;5006916;28;20038;-60
2021/12/11 08:01:46;;;;;;;49.15;25.88;;;-0.70;99.90;;;;;;5021315;28;20061;-59
2021/12/11 08:04:12;;;;;;;48.53;26.73;;;-0.70;99.90;;;;;;5023409;28;20041;-60
2021/12/11 08:06:39;;;;;;;45.75;26.45;;;-0.70;99.90;;;;;;5005856;28;20061;-60
2021/12/11 08:09:07;;;;;;;;;;;-0.70;99.90;;;;;;5022840;28;20050;-61
2021/12/11 08:11:34;;;;;;;53.35;28.40;;;-0.70;99.90;;;;;;5023720;28;19921;-60
2021/12/11 08:14:00;;;;;;;50.83;26.33;;;-0.70;99.90;;;;;;5024067;28;20046;-60
2021/12/11 08:16:34;;;;;;;51.72;29.33;;;-0.60;99.90;;;;;;5022017;28;20076;-60
2021/12/11 08:19:02;;;;;;;51.95;27.40;;;-0.60;99.90;;;;;;5017548;28;20073;-60
2021/12/11 08:21:30;;;;;;;48.67;27.25;;;-0.60;99.90;;;;;;5022529;28;20048;-60
2021/12/11 08:23:56;;;;;;;50.50;27.90;;;-0.60;99.90;;;;;;5023384;28;20103;-60
2021/12/11 08:26:25;;;;;;;52.88;28.02;;;-0.60;99.90;;;;;;5022065;28;20049;-59
2021/12/11 08:28:52;;;;;;;55.80;28.88;;;-0.60;99.90;;;;;;5023693;28;20085;-60
2021/12/11 08:31:18;;;;;;;;;;;-0.50;99.90;;;;;;5021867;28;20060;-59
2021/12/11 08:33:45;;;;;;;53.63;27.33;;;-0.50;99.90;;;;;;5021597;28;19925;-57
2021/12/11 08:36:11;;;;;;;54.80;28.00;;;-0.50;99.90;;;;;;5023027;28;20040;-58
2021/12/11 08:38:36;;;;;;;52.70;27.25;;;-0.50;99.90;;;;;;5023767;28;20184;-59
2021/12/11 08:41:07;;;;;;;53.50;28.23;;;-0.50;99.90;;;;;;5021858;28;20125;-59
2021/12/11 08:43:34;;;;;;;52.90;27.77;;;-0.40;99.90;;;;;;5021092;28;20062;-59
2021/12/11 08:46:09;;;;;;;54.60;28.00;;;-0.40;99.90;;;;;;5022892;28;20046;-59
2021/12/11 08:48:40;;;;;;;53.05;28.08;;;-0.40;99.90;;;;;;5020581;28;20045;-59
2021/12/11 08:51:10;;;;;;;53.20;28.02;;;-0.40;99.90;;;;;;5023034;28;20085;-59
2021/12/11 08:53:37;;;;;;;55.35;28.02;;;-0.40;99.90;;;;;;5021701;28;20050;-59
2021/12/11 08:56:05;;;;;;;48.10;26.90;;;-0.30;99.90;;;;;;5014847;28;20109;-58
2021/12/11 08:58:31;;;;;;;49.13;27.20;;;-0.30;99.90;;;;;;5022906;28;20430;-59
2021/12/11 09:01:04;;;;;;;56.67;28.43;;;-0.30;99.90;;;;;;5021541;28;20077;-63
2021/12/11 09:03:51;;;;;;;51.70;26.73;;;-0.30;99.90;;;;;;5020933;28;20058;-58
2021/12/11 09:06:27;;;;;;;52.28;27.40;;;-0.30;99.90;;;;;;5021407;28;20102;-59
2021/12/11 09:09:08;;;;;;;57.10;28.15;;;-0.20;99.90;;;;;;5021453;28;20096;-60
2021/12/11 09:11:51;;;;;;;54.40;28.50;;;-0.20;99.90;;;;;;5023183;28;20053;-59
2021/12/11 09:14:23;;;;;;;51.83;27.33;;;-0.20;99.90;;;;;;5021300;28;20049;-60
2021/12/11 09:17:20;;;;;;;50.97;27.55;;;-0.10;99.90;;;;;;5022477;28;20124;-59
2021/12/11 09:19:45;;;;;;;51.58;28.05;;;0.00;99.90;;;;;;5018885;28;20072;-61
2021/12/11 09:22:11;;;;;;;56.60;26.30;;;0.00;99.90;;;;;;5021804;28;20057;-59
2021/12/11 09:24:57;;;;;;;56.20;29.30;;;0.10;99.90;;;;;;5021042;28;20072;-59
2021/12/11 09:27:44;;;;;;;53.40;27.60;;;0.10;99.90;;;;;;5021034;28;20136;-59
2021/12/11 09:30:22;;;;;;;54.85;27.10;;;0.20;99.90;;;;;;5015920;28;20065;-58
2021/12/11 09:33:08;;;;;;;54.40;27.45;;;0.20;99.90;;;;;;5021038;28;20513;-59
2021/12/11 09:35:50;;;;;;;52.30;27.25;;;0.20;99.90;;;;;;5020217;28;20049;-59
2021/12/11 09:38:23;;;;;;;53.05;27.05;;;0.30;99.90;;;;;;5020413;28;20426;-58
2021/12/11 09:40:52;;;;;;;53.90;28.25;;;0.30;99.90;;;;;;5021290;28;20100;-58
2021/12/11 09:43:41;;;;;;;52.00;26.83;;;0.40;99.90;;;;;;5016423;28;20053;-58
2021/12/11 09:46:10;;;;;;;59.80;26.70;;;0.40;99.90;;;;;;5006726;28;20057;-58
2021/12/11 09:48:39;;;;;;;47.40;25.92;;;0.40;99.90;;;;;;5022032;28;20112;-59
2021/12/11 09:51:11;;;;;;;50.85;26.48;;;0.50;99.90;;;;;;5022279;28;20071;-59
2021/12/11 09:53:42;;;;;;;50.25;26.25;;;0.50;99.90;;;;;;5020323;28;20535;-58
2021/12/11 09:56:16;;;;;;;45.72;25.92;;;0.60;99.90;;;;;;5010997;28;20038;-58
2021/12/11 09:58:42;;;;;;;51.50;27.02;;;0.60;99.90;;;;;;5036986;28;20033;-59
2021/12/11 10:01:11;;;;;;;51.25;26.02;;;0.60;99.90;;;;;;5016043;28;20149;-58
2021/12/11 10:03:47;;;;;;;48.33;25.77;;;0.60;99.90;;;;;;5020350;28;20106;-61
2021/12/11 10:06:39;;;;;;;45.33;25.23;;;0.70;99.90;;;;;;5020118;28;20553;-59
2021/12/11 10:09:32;;;;;;;51.63;26.55;;;0.80;99.90;;;;;;5011305;28;20069;-58
2021/12/11 10:12:10;;;;;;;47.33;24.92;;;0.80;99.90;;;;;;5020674;28;20062;-58
2021/12/11 10:14:40;;;;;;;46.05;26.30;;;0.80;99.90;;;;;;5024295;28;20137;-58
2021/12/11 10:17:21;;;;;;;47.22;24.45;;;0.90;99.90;;;;;;5026402;28;20041;-58
2021/12/11 10:19:50;;;;;;;49.40;26.80;;;0.90;99.90;;;;;;5022564;28;20490;-58
2021/12/11 10:22:32;;;;;;;53.53;27.15;;;0.90;99.90;;;;;;5026317;28;20422;-58
2021/12/11 10:25:00;;;;;;;52.30;28.05;;;1.00;99.90;;;;;;5026172;28;20462;-58
2021/12/11 10:27:29;;;;;;;44.50;25.30;;;1.10;99.90;;;;;;5025987;28;20046;-58
2021/12/11 10:29:57;;;;;;;53.97;27.10;;;1.10;99.90;;;;;;5024077;28;20064;-59
2021/12/11 10:32:27;;;;;;;49.10;26.25;;;1.20;99.90;;;;;;5024210;28;20046;-58
2021/12/11 10:34:57;;;;;;;55.35;27.25;;;1.20;99.90;;;;;;5026001;28;20046;-58
2021/12/11 10:37:29;;;;;;;48.83;26.83;;;1.30;99.90;;;;;;5025907;28;20378;-59
2021/12/11 10:39:58;;;;;;;58.85;27.40;;;1.30;99.90;;;;;;5007412;28;20166;-58
2021/12/11 10:42:25;;;;;;;48.00;26.38;;;1.30;99.90;;;;;;5039429;28;20438;-58
2021/12/11 10:44:53;;;;;;;51.00;24.92;;;1.30;99.90;;;;;;5024016;28;20065;-59
2021/12/11 10:47:30;;;;;;;50.42;25.98;;;1.30;99.90;;;;;;5025240;28;20136;-60
2021/12/11 10:49:56;;;;;;;53.85;26.75;;;1.40;99.90;;;;;;5025605;28;20045;-62
2021/12/11 10:52:33;;;;;;;51.03;27.08;;;1.40;99.90;;;;;;5040622;28;20050;-58
2021/12/11 10:55:03;;;;;;;54.60;25.90;;;1.50;99.90;;;;;;5023910;28;20057;-63
2021/12/11 10:57:29;;;;;;;50.97;25.38;;;1.60;99.90;;;;;;5024946;28;20089;-63
2021/12/11 10:59:58;;;;;;;47.03;26.48;;;1.70;99.90;;;;;;5025122;28;20038;-58
2021/12/11 11:02:28;;;;;;;43.22;24.27;;;1.80;99.90;;;;;;5025102;28;20074;-58
2021/12/11 11:05:08;;;;;;;48.75;25.33;;;1.90;99.90;;;;;;5022957;28;20066;-63
2021/12/11 11:07:36;;;;;;;45.10;24.10;;;1.90;99.90;;;;;;5025136;28;20134;-58
2021/12/11 11:10:06;;;;;;;46.05;24.25;;;2.00;99.90;;;;;;5025033;28;20070;-58
2021/12/11 11:12:32;;;;;;;42.70;24.15;;;2.10;99.90;;;;;;5023198;28;20037;-58
2021/12/11 11:14:58;;;;;;;48.07;24.83;;;2.20;99.90;;;;;;5023795;28;20163;-67
2021/12/11 11:17:31;;;;;;;46.33;24.98;;;2.30;99.90;;;;;;5023325;28;20320;-58
2021/12/11 11:19:58;;;;;;;40.67;24.15;;;2.40;99.90;;;;;;5011585;28;20034;-58
2021/12/11 11:22:29;;;;;;;42.38;24.90;;;2.40;99.90;;;;;;5021644;28;20045;-58
2021/12/11 11:24:59;;;;;;;39.40;23.27;;;2.50;99.90;;;;;;5003390;28;20034;-58
2021/12/11 11:27:25;;;;;;;44.05;24.23;;;2.50;99.90;;;;;;5022765;28;20057;-58
2021/12/11 11:29:51;;;;;;;40.37;24.20;;;2.50;99.90;;;;;;5025117;28;20042;-58
2021/12/11 11:32:30;;;;;;;43.65;25.25;;;2.60;99.90;;;;;;5024687;28;20046;-59
2021/12/11 11:35:02;;;;;;;43.85;23.73;;;2.60;99.90;;;;;;5024617;28;20102;-58
2021/12/11 11:37:28;;;;;;;41.55;23.85;;;2.70;99.90;;;;;;5023363;28;20509;-58
2021/12/11 11:39:54;;;;;;;42.53;25.10;;;2.70;99.90;;;;;;5006224;28;20378;-59
2021/12/11 11:42:21;;;;;;;42.65;24.35;;;2.70;99.90;;;;;;5019307;28;20495;-58
2021/12/11 11:44:49;;;;;;;40.72;24.50;;;2.70;99.90;;;;;;5017425;28;20141;-58
2021/12/11 11:47:17;;;;;;;40.00;22.95;;;2.70;99.90;;;;;;5024825;28;20058;-58
2021/12/11 11:49:44;;;;;;;41.80;23.38;;;2.80;99.90;;;;;;5006173;28;20095;-62
2021/12/11 11:52:19;;;;;;;39.03;22.70;;;2.80;99.90;;;;;;5022633;28;20044;-64
2021/12/11 11:54:47;;;;;;;39.55;22.38;;;2.80;99.90;;;;;;5022624;28;20072;-59
2021/12/11 11:57:17;;;;;;;38.50;23.10;;;2.80;99.90;;;;;;5024118;28;20050;-60
2021/12/11 11:59:43;;;;;;;45.75;22.92;;;2.80;99.90;;;;;;5022862;28;20109;-59
2021/12/11 12:02:12;;;;;;;41.47;23.52;;;2.80;99.90;;;;;;5006332;28;20050;-60
2021/12/11 12:04:39;;;;;;;38.55;22.77;;;2.90;99.90;;;;;;5022325;28;20413;-60
2021/12/11 12:07:06;;;;;;;;;;;2.90;99.90;;;;;;5024473;28;20057;-61
2021/12/11 12:09:42;;;;;;;36.50;21.33;;;2.90;99.90;;;;;;5023769;28;19933;-59
2021/12/11 12:12:10;;;;;;;38.80;22.88;;;2.90;99.90;;;;;;5005973;28;20088;-60
2021/12/11 12:14:37;;;;;;;38.45;23.52;;;3.00;99.90;;;;;;5023714;28;20144;-61
2021/12/11 12:17:05;;;;;;;39.40;22.95;;;3.00;99.90;;;;;;5022379;28;20105;-61
2021/12/11 12:19:31;;;;;;;38.60;23.23;;;3.00;99.90;;;;;;5022211;28;20068;-59
2021/12/11 12:22:03;;;;;;;36.92;25.05;;;3.00;99.90;;;;;;5024165;28;20073;-59
2021/12/11 12:24:31;;;;;;;34.50;21.27;;;3.00;99.90;;;;;;5016663;28;20397;-60
2021/12/11 12:27:03;;;;;;;31.95;20.67;;;3.10;99.90;;;;;;5004348;28;20043;-59
2021/12/11 12:29:30;;;;;;;38.90;21.45;;;3.10;99.90;;;;;;5022173;28;20061;-60
2021/12/11 12:32:06;;;;;;;35.22;22.35;;;3.10;99.90;;;;;;5023378;28;20187;-59
2021/12/11 12:34:32;;;;;;;33.28;21.38;;;3.10;99.90;;;;;;5021733;28;20050;-68
2021/12/11 12:37:00;;;;;;;37.38;22.30;;;3.20;99.90;;;;;;5021108;28;20490;-65
2021/12/11 12:39:36;;;;;;;39.08;23.05;;;3.10;99.90;;;;;;5021794;28;20135;-61
2021/12/11 12:42:21;;;;;;;38.75;21.65;;;3.10;99.90;;;;;;5002789;28;20061;-60
2021/12/11 12:44:51;;;;;;;35.70;21.30;;;3.10;99.90;;;;;;5023287;28;20137;-61
2021/12/11 12:47:22;;;;;;;40.65;22.02;;;3.00;99.90;;;;;;5022963;28;20545;-60
2021/12/11 12:49:54;;;;;;;42.15;21.60;;;3.10;99.90;;;;;;5021396;28;20054;-61
2021/12/11 12:52:35;;;;;;;36.60;21.52;;;3.10;99.90;;;;;;5021958;28;20088;-61
2021/12/11 12:55:08;;;;;;;32.17;21.00;;;3.10;99.90;;;;;;5021074;28;20088;-61
2021/12/11 12:57:42;;;;;;;34.92;20.58;;;3.10;99.90;;;;;;5029016;28;20053;-61
2021/12/11 13:00:32;;;;;;;41.08;21.85;;;3.10;99.90;;;;;;5023362;28;20046;-59